Hume, New York
Current Conditions -  °F | °C
As of 7:15 AM on Tuesday 27 Jan 2015 (Local Time) from KOLE Reporting Station
Light Snow Light Snow  
Wind Chill:   Ceiling: 700
Heat Index: 12°   Visibility: 5mi
Dew Point: 12°   Wind: 8mph
Humidity: 100%   Direction: 10°N
Pressure: 29.8"   Gusts: NA
Location:  42.47°N, 78.14°W
Report Text: KOLE 271215Z AUTO 01007KT 5SM -SN OVC007 M11/M11 A2980 RMK AO2
Loading
Personal Weather Stations






























Interactive Weather Map New forecast layout! Learn more

10-Day Weather Forecast

Advertisements
Track Severe Weather on mobile